createdAt,value
2018-10-17T00:02:03.942Z,11.30
2018-10-17T00:04:32.254Z,11.10
2018-10-17T00:07:00.955Z,11.00
2018-10-17T00:09:29.217Z,10.90
2018-10-17T00:11:57.454Z,10.90
2018-10-17T00:14:25.771Z,11.00
2018-10-17T00:16:54.145Z,11.00
2018-10-17T00:19:22.429Z,11.00
2018-10-17T00:21:50.618Z,11.00
2018-10-17T00:24:18.899Z,11.10
2018-10-17T00:26:47.242Z,11.00
2018-10-17T00:29:15.561Z,10.90
2018-10-17T00:31:43.727Z,10.80
2018-10-17T00:34:12.023Z,10.80
2018-10-17T00:36:40.231Z,10.70
2018-10-17T00:39:09.850Z,10.60
2018-10-17T00:41:38.143Z,10.60
2018-10-17T00:44:06.407Z,10.40
2018-10-17T00:46:34.628Z,10.40
2018-10-17T00:49:02.925Z,10.30
2018-10-17T00:51:31.128Z,10.30
2018-10-17T00:53:59.503Z,10.20
2018-10-17T00:56:27.770Z,10.20
2018-10-17T00:59:08.400Z,10.30
2018-10-17T01:01:36.942Z,10.30
2018-10-17T01:04:06.348Z,10.40
2018-10-17T01:06:36.055Z,10.30
2018-10-17T01:09:11.446Z,10.30
2018-10-17T01:11:40.591Z,10.20
2018-10-17T01:14:09.222Z,10.30
2018-10-17T01:16:37.523Z,10.40
2018-10-17T01:19:06.247Z,10.50
2018-10-17T01:21:35.179Z,10.60
2018-10-17T01:24:03.408Z,10.80
2018-10-17T01:26:31.670Z,10.80
2018-10-17T01:28:59.966Z,10.80
2018-10-17T01:31:28.249Z,10.80
2018-10-17T01:33:56.536Z,10.70
2018-10-17T01:36:24.737Z,10.70
2018-10-17T01:38:52.958Z,10.60
2018-10-17T01:41:21.182Z,10.60
2018-10-17T01:43:49.454Z,10.50
2018-10-17T01:46:17.672Z,10.50
2018-10-17T01:48:45.927Z,10.50
2018-10-17T01:51:14.149Z,10.50
2018-10-17T01:53:42.371Z,10.50
2018-10-17T01:56:10.617Z,10.50
2018-10-17T01:58:38.826Z,10.60
2018-10-17T02:01:07.138Z,10.60
2018-10-17T02:03:35.312Z,10.70
2018-10-17T02:06:03.565Z,10.70
2018-10-17T02:08:31.789Z,10.60
2018-10-17T02:11:00.177Z,10.60
2018-10-17T02:13:28.366Z,10.70
2018-10-17T02:15:56.586Z,10.80
2018-10-17T02:18:24.850Z,10.70
2018-10-17T02:20:53.122Z,10.70
2018-10-17T02:23:21.398Z,10.60
2018-10-17T02:25:49.642Z,10.50
2018-10-17T02:28:17.923Z,10.40
2018-10-17T02:30:46.142Z,10.20
2018-10-17T02:33:14.403Z,10.00
2018-10-17T02:35:42.679Z,9.90
2018-10-17T02:38:10.923Z,9.80
2018-10-17T02:40:39.195Z,9.80
2018-10-17T02:43:07.415Z,9.90
2018-10-17T02:45:35.676Z,10.00
2018-10-17T02:48:03.943Z,10.00
2018-10-17T02:53:06.838Z,9.80
2018-10-17T02:55:35.078Z,9.70
2018-10-17T02:58:03.304Z,9.70
2018-10-17T03:00:31.675Z,9.70
2018-10-17T03:02:59.945Z,9.80
2018-10-17T03:05:28.219Z,9.90
2018-10-17T03:07:56.516Z,9.90
2018-10-17T03:10:24.772Z,9.90
2018-10-17T03:12:53.054Z,9.90
2018-10-17T03:15:21.311Z,10.10
2018-10-17T03:17:49.575Z,10.10
2018-10-17T03:20:17.977Z,10.20
2018-10-17T03:22:46.217Z,10.20
2018-10-17T03:25:14.522Z,10.20
2018-10-17T03:27:42.753Z,10.20
2018-10-17T03:30:11.088Z,10.20
2018-10-17T03:32:39.355Z,10.20
2018-10-17T03:35:07.651Z,10.20
2018-10-17T03:37:36.310Z,10.00
2018-10-17T03:40:04.915Z,9.90
2018-10-17T03:42:33.171Z,9.90
2018-10-17T03:45:01.450Z,9.90
2018-10-17T03:47:29.700Z,9.90
2018-10-17T03:49:58.048Z,9.80
2018-10-17T03:52:26.223Z,9.70
2018-10-17T03:54:54.539Z,9.60
2018-10-17T03:57:22.675Z,9.60
2018-10-17T03:59:50.912Z,9.60
2018-10-17T04:02:19.191Z,9.70
2018-10-17T04:04:47.400Z,9.70
2018-10-17T04:07:15.677Z,9.70
2018-10-17T04:09:43.947Z,9.70
2018-10-17T04:12:12.176Z,9.80
2018-10-17T04:14:40.378Z,9.80
2018-10-17T04:17:08.752Z,9.90
2018-10-17T04:19:36.928Z,9.90
2018-10-17T04:22:05.331Z,9.90
2018-10-17T04:24:33.677Z,10.00
2018-10-17T04:27:01.942Z,10.10
2018-10-17T04:29:30.187Z,10.10
2018-10-17T04:31:58.432Z,10.10
2018-10-17T04:34:26.737Z,10.10
2018-10-17T04:36:55.078Z,10.20
2018-10-17T04:39:23.374Z,10.20
2018-10-17T04:41:51.620Z,10.20
2018-10-17T04:44:19.885Z,10.20
2018-10-17T04:46:48.099Z,10.20
2018-10-17T04:49:16.357Z,10.20
2018-10-17T04:51:44.563Z,10.20
2018-10-17T04:54:12.791Z,10.10
2018-10-17T04:56:41.045Z,10.00
2018-10-17T04:59:09.289Z,9.90
2018-10-17T05:01:37.557Z,9.80
2018-10-17T05:04:06.279Z,9.80
2018-10-17T05:06:34.615Z,9.80
2018-10-17T05:09:02.908Z,9.80
2018-10-17T05:11:31.130Z,9.70
2018-10-17T05:13:59.375Z,9.60
2018-10-17T05:16:27.639Z,9.50
2018-10-17T05:18:55.962Z,9.50
2018-10-17T05:21:24.186Z,9.40
2018-10-17T05:23:52.527Z,9.40
2018-10-17T05:26:20.747Z,9.40
2018-10-17T05:28:49.027Z,9.40
2018-10-17T05:31:17.328Z,9.40
2018-10-17T05:33:45.607Z,9.40
2018-10-17T05:36:13.824Z,9.40
2018-10-17T05:38:42.094Z,9.40
2018-10-17T05:41:10.380Z,9.40
2018-10-17T05:43:38.602Z,9.30
2018-10-17T05:46:06.927Z,9.30
2018-10-17T05:48:35.203Z,9.30
2018-10-17T05:51:03.426Z,9.40
2018-10-17T05:53:31.678Z,9.40
2018-10-17T05:56:00.022Z,9.40
2018-10-17T05:58:28.255Z,9.60
2018-10-17T06:00:56.645Z,9.60
2018-10-17T06:03:24.935Z,9.60
2018-10-17T06:05:53.158Z,9.70
2018-10-17T06:08:21.437Z,9.70
2018-10-17T06:10:49.716Z,9.70
2018-10-17T06:13:17.970Z,9.70
2018-10-17T06:15:46.165Z,9.70
2018-10-17T06:18:14.404Z,9.70
2018-10-17T06:20:42.661Z,9.70
2018-10-17T06:23:10.976Z,9.70
2018-10-17T06:25:39.133Z,9.60
2018-10-17T06:28:07.454Z,9.70
2018-10-17T06:30:35.748Z,9.60
2018-10-17T06:33:04.160Z,9.70
2018-10-17T06:35:32.453Z,9.70
2018-10-17T06:38:00.820Z,9.70
2018-10-17T06:40:29.074Z,9.80
2018-10-17T06:42:57.351Z,9.90
2018-10-17T06:45:25.577Z,10.00
2018-10-17T06:47:53.803Z,10.10
2018-10-17T06:50:22.088Z,10.10
2018-10-17T06:52:50.361Z,10.30
2018-10-17T06:55:18.737Z,10.40
2018-10-17T06:57:47.926Z,10.60
2018-10-17T07:00:16.572Z,10.70
2018-10-17T07:02:44.906Z,10.90
2018-10-17T07:05:13.367Z,11.20
2018-10-17T07:07:41.407Z,11.50
2018-10-17T07:10:09.781Z,11.80
2018-10-17T07:12:44.763Z,12.10
2018-10-17T07:15:13.099Z,12.50
2018-10-17T07:17:41.272Z,12.70
2018-10-17T07:20:09.956Z,12.90
2018-10-17T07:22:38.219Z,13.10
2018-10-17T07:25:06.640Z,13.30
2018-10-17T07:27:34.791Z,13.60
2018-10-17T07:30:03.046Z,13.90
2018-10-17T07:32:31.269Z,14.10
2018-10-17T07:34:59.504Z,14.40
2018-10-17T07:37:27.726Z,14.70
2018-10-17T07:39:55.943Z,14.90
2018-10-17T07:42:24.222Z,15.00
2018-10-17T07:44:52.534Z,15.10
2018-10-17T07:47:20.771Z,15.20
2018-10-17T07:49:49.011Z,15.40
2018-10-17T07:52:17.223Z,15.50
2018-10-17T07:54:45.496Z,15.60
2018-10-17T07:57:13.724Z,15.60
2018-10-17T07:59:42.104Z,15.70
2018-10-17T08:02:10.280Z,16.10
2018-10-17T08:04:38.648Z,16.30
2018-10-17T08:07:06.831Z,16.80
2018-10-17T08:09:35.077Z,17.20
2018-10-17T08:12:03.394Z,17.20
2018-10-17T08:14:31.674Z,17.20
2018-10-17T08:17:00.039Z,17.00
2018-10-17T08:19:28.318Z,17.00
2018-10-17T08:21:56.615Z,17.20
2018-10-17T08:24:24.837Z,17.00
2018-10-17T08:26:53.094Z,17.10
2018-10-17T08:29:21.351Z,17.20
2018-10-17T08:31:49.564Z,17.30
2018-10-17T08:34:17.874Z,17.20
2018-10-17T08:36:46.556Z,17.20
2018-10-17T08:39:14.538Z,17.20
2018-10-17T08:41:42.884Z,17.20
2018-10-17T08:44:11.295Z,17.10
2018-10-17T08:46:39.557Z,17.10
2018-10-17T08:49:07.857Z,17.20
2018-10-17T08:51:36.099Z,17.40
2018-10-17T08:54:04.590Z,17.30
2018-10-17T08:56:33.199Z,17.30
2018-10-17T08:59:01.449Z,17.10
2018-10-17T09:01:29.726Z,17.10
2018-10-17T09:03:57.994Z,16.90
2018-10-17T09:06:26.226Z,17.20
2018-10-17T09:08:54.476Z,17.30
2018-10-17T09:11:22.755Z,17.30
2018-10-17T09:13:50.986Z,17.10
2018-10-17T09:16:19.321Z,17.20
2018-10-17T09:18:47.543Z,17.30
2018-10-17T09:21:16.041Z,17.40
2018-10-17T09:23:43.995Z,17.60
2018-10-17T09:26:12.207Z,17.80
2018-10-17T09:28:40.684Z,18.00
2018-10-17T09:31:08.898Z,18.20
2018-10-17T09:33:37.092Z,18.40
2018-10-17T09:36:05.416Z,18.50
2018-10-17T09:38:33.644Z,18.80
2018-10-17T09:41:02.027Z,19.10
2018-10-17T09:43:30.298Z,19.60
2018-10-17T09:45:58.604Z,19.80
2018-10-17T09:48:26.851Z,20.10
2018-10-17T09:50:55.128Z,20.30
2018-10-17T09:53:23.577Z,20.10
2018-10-17T09:55:51.763Z,19.90
2018-10-17T09:58:19.980Z,20.10
2018-10-17T10:00:53.578Z,20.30
2018-10-17T10:03:21.815Z,20.50
2018-10-17T10:05:50.109Z,20.80
2018-10-17T10:08:18.385Z,20.90
2018-10-17T10:10:46.707Z,20.90
2018-10-17T10:13:14.947Z,21.10
2018-10-17T10:15:43.215Z,21.40
2018-10-17T10:18:11.510Z,21.50
2018-10-17T10:20:39.746Z,21.70
2018-10-17T10:23:08.012Z,21.60
2018-10-17T10:25:36.259Z,21.60
2018-10-17T10:28:04.699Z,21.30
2018-10-17T10:30:32.887Z,21.30
2018-10-17T10:33:01.156Z,21.60
2018-10-17T10:35:29.643Z,21.60
2018-10-17T10:37:57.988Z,21.20
2018-10-17T10:40:26.350Z,21.20
2018-10-17T10:42:54.571Z,21.30
2018-10-17T10:45:22.888Z,20.40
2018-10-17T10:47:51.102Z,20.20
2018-10-17T10:50:19.384Z,20.30
2018-10-17T10:52:48.723Z,20.10
2018-10-17T10:55:16.896Z,20.10
2018-10-17T10:57:45.151Z,20.00
2018-10-17T11:00:13.544Z,19.80
2018-10-17T11:02:41.621Z,19.60
2018-10-17T11:05:09.893Z,19.50
2018-10-17T11:07:38.071Z,19.40
2018-10-17T11:10:06.571Z,19.40
2018-10-17T11:12:34.836Z,19.50
2018-10-17T11:15:03.265Z,19.60
2018-10-17T11:17:31.436Z,19.50
2018-10-17T11:19:59.694Z,19.40
2018-10-17T11:22:27.930Z,19.40
2018-10-17T11:24:56.207Z,19.30
2018-10-17T11:27:24.445Z,19.40
2018-10-17T11:29:52.834Z,19.50
2018-10-17T11:32:21.112Z,19.50
2018-10-17T11:34:49.351Z,19.40
2018-10-17T11:37:17.673Z,19.40
2018-10-17T11:39:46.021Z,19.40
2018-10-17T11:42:14.364Z,19.40
2018-10-17T11:44:42.704Z,19.40
2018-10-17T11:47:10.994Z,19.30
2018-10-17T11:49:40.175Z,19.30
2018-10-17T11:52:08.706Z,19.50
2018-10-17T11:54:37.019Z,19.50
2018-10-17T11:57:05.392Z,19.60
2018-10-17T11:59:33.827Z,19.70
2018-10-17T12:02:02.107Z,19.70
2018-10-17T12:04:30.626Z,19.70
2018-10-17T12:06:58.667Z,19.70
2018-10-17T12:09:26.928Z,19.60
2018-10-17T12:11:55.294Z,19.60
2018-10-17T12:14:23.474Z,19.70
2018-10-17T12:16:51.784Z,19.80
2018-10-17T12:19:20.151Z,19.90
2018-10-17T12:21:48.771Z,19.90
2018-10-17T12:24:17.207Z,19.90
2018-10-17T12:26:45.387Z,20.00
2018-10-17T12:29:13.655Z,20.10
2018-10-17T12:31:41.928Z,20.10
2018-10-17T12:34:10.167Z,20.20
2018-10-17T12:36:38.390Z,20.30
2018-10-17T12:39:09.181Z,20.20
2018-10-17T12:41:37.632Z,20.30
2018-10-17T12:44:05.876Z,20.30
2018-10-17T12:46:34.147Z,20.30
2018-10-17T12:49:02.416Z,20.40
2018-10-17T12:51:30.589Z,20.40
2018-10-17T12:53:58.881Z,20.40
2018-10-17T12:56:27.112Z,20.40
2018-10-17T12:58:55.445Z,20.40
2018-10-17T13:01:23.720Z,20.30
2018-10-17T13:03:52.286Z,20.40
2018-10-17T13:06:20.539Z,20.40
2018-10-17T13:08:48.912Z,20.30
2018-10-17T13:11:17.314Z,20.40
2018-10-17T13:13:45.391Z,20.30
2018-10-17T13:16:13.684Z,20.40
2018-10-17T13:18:42.130Z,20.40
2018-10-17T13:21:10.450Z,20.40
2018-10-17T13:23:38.790Z,20.40
2018-10-17T13:26:07.228Z,20.40
2018-10-17T13:28:35.473Z,20.30
2018-10-17T13:31:03.790Z,20.40
2018-10-17T13:33:32.003Z,20.40
2018-10-17T13:36:00.251Z,20.40
2018-10-17T13:38:28.530Z,20.40
2018-10-17T13:40:56.835Z,20.40
2018-10-17T13:43:25.148Z,20.40
2018-10-17T13:45:53.644Z,20.40
2018-10-17T13:48:22.107Z,20.50
2018-10-17T13:50:50.361Z,20.50
2018-10-17T13:53:18.757Z,20.50
2018-10-17T13:55:47.126Z,20.50
2018-10-17T13:58:15.398Z,20.40
2018-10-17T14:00:43.605Z,20.40
2018-10-17T14:03:11.861Z,20.40
2018-10-17T14:05:40.112Z,20.40
2018-10-17T14:08:08.432Z,20.30
2018-10-17T14:10:36.764Z,20.30
2018-10-17T14:13:05.045Z,20.30
2018-10-17T14:15:33.308Z,20.30
2018-10-17T14:20:36.466Z,20.30
2018-10-17T14:23:04.749Z,20.20
2018-10-17T14:25:33.083Z,20.20
2018-10-17T14:28:01.351Z,20.20
2018-10-17T14:30:29.726Z,20.20
2018-10-17T14:32:58.000Z,20.10
2018-10-17T14:35:26.297Z,20.20
2018-10-17T14:37:54.613Z,20.20
2018-10-17T14:40:22.959Z,20.20
2018-10-17T14:42:51.242Z,20.20
2018-10-17T14:45:19.689Z,20.20
2018-10-17T14:47:47.976Z,20.10
2018-10-17T14:50:16.263Z,20.10
2018-10-17T14:52:44.527Z,20.10
2018-10-17T14:55:12.779Z,20.00
2018-10-17T14:57:41.063Z,19.90
2018-10-17T15:00:13.864Z,19.90
2018-10-17T15:02:42.393Z,19.90
2018-10-17T15:05:11.272Z,20.00
2018-10-17T15:07:40.598Z,20.00
2018-10-17T15:10:09.188Z,19.90
2018-10-17T15:12:38.015Z,19.90
2018-10-17T15:15:08.060Z,19.90
2018-10-17T15:17:36.250Z,19.90
2018-10-17T15:20:04.934Z,19.80
2018-10-17T15:22:33.182Z,19.80
2018-10-17T15:25:01.422Z,19.70
2018-10-17T15:27:29.822Z,19.70
2018-10-17T15:29:58.370Z,19.70
2018-10-17T15:32:26.643Z,19.70
2018-10-17T15:34:54.968Z,19.70
2018-10-17T15:37:23.225Z,19.60
2018-10-17T15:39:51.425Z,19.60
2018-10-17T15:42:19.804Z,19.60
2018-10-17T15:44:48.043Z,19.60
2018-10-17T15:47:16.599Z,19.50
2018-10-17T15:49:44.941Z,19.50
2018-10-17T15:52:13.358Z,19.40
2018-10-17T15:54:41.838Z,19.30
2018-10-17T15:57:10.231Z,19.30
2018-10-17T15:59:38.450Z,19.30
2018-10-17T16:02:06.888Z,19.30
2018-10-17T16:04:35.402Z,19.20
2018-10-17T16:07:03.849Z,19.10
2018-10-17T16:09:32.164Z,19.10
2018-10-17T16:12:00.962Z,19.00
2018-10-17T16:14:29.279Z,18.90
2018-10-17T16:16:57.663Z,18.90
2018-10-17T16:19:26.127Z,18.80
2018-10-17T16:21:54.543Z,18.80
2018-10-17T16:24:22.840Z,18.70
2018-10-17T16:26:51.544Z,18.70
2018-10-17T16:29:20.027Z,18.60
2018-10-17T16:31:49.071Z,18.60
2018-10-17T16:34:17.423Z,18.60
2018-10-17T16:36:45.977Z,18.50
2018-10-17T16:39:14.232Z,18.50
2018-10-17T16:41:42.631Z,18.50
2018-10-17T16:44:11.139Z,18.40
2018-10-17T16:46:39.380Z,18.30
2018-10-17T16:49:11.010Z,18.20
2018-10-17T16:51:39.355Z,18.10
2018-10-17T16:54:07.700Z,18.00
2018-10-17T16:56:36.038Z,17.90
2018-10-17T16:59:04.419Z,17.80
2018-10-17T17:01:32.740Z,17.80
2018-10-17T17:04:01.003Z,17.70
2018-10-17T17:06:29.234Z,17.70
2018-10-17T17:08:57.485Z,17.60
2018-10-17T17:11:25.750Z,17.60
2018-10-17T17:13:54.001Z,17.50
2018-10-17T17:16:22.303Z,17.50
2018-10-17T17:18:50.645Z,17.50
2018-10-17T17:21:18.938Z,17.50
2018-10-17T17:23:47.204Z,17.50
2018-10-17T17:26:15.496Z,17.50
2018-10-17T17:28:43.727Z,17.40
2018-10-17T17:31:11.977Z,17.40
2018-10-17T17:33:40.223Z,17.40
2018-10-17T17:36:08.465Z,17.30
2018-10-17T17:38:36.846Z,17.30
2018-10-17T17:41:05.276Z,17.30
2018-10-17T17:43:33.531Z,17.10
2018-10-17T17:46:01.811Z,17.00
2018-10-17T17:48:30.082Z,16.80
2018-10-17T17:50:58.379Z,16.80
2018-10-17T17:53:26.676Z,16.80
2018-10-17T17:55:54.916Z,16.70
2018-10-17T17:58:23.208Z,16.80
2018-10-17T18:00:51.420Z,16.70
2018-10-17T18:03:19.668Z,16.70
2018-10-17T18:05:47.969Z,16.70
2018-10-17T18:08:16.274Z,16.70
2018-10-17T18:10:44.516Z,16.60
2018-10-17T18:13:12.975Z,16.50
2018-10-17T18:15:41.561Z,16.40
2018-10-17T18:18:10.110Z,16.40
2018-10-17T18:20:38.566Z,16.40
2018-10-17T18:23:06.861Z,16.30
2018-10-17T18:25:35.091Z,16.30
2018-10-17T18:28:03.517Z,16.20
2018-10-17T18:30:31.611Z,16.20
2018-10-17T18:33:00.005Z,16.20
2018-10-17T18:35:28.299Z,16.10
2018-10-17T18:37:56.556Z,15.90
2018-10-17T18:40:24.901Z,15.80
2018-10-17T18:42:53.240Z,15.80
2018-10-17T18:45:21.516Z,15.70
2018-10-17T18:47:50.226Z,15.60
2018-10-17T18:50:18.525Z,15.70
2018-10-17T18:52:46.923Z,15.70
2018-10-17T18:55:15.204Z,15.60
2018-10-17T18:57:43.504Z,15.50
2018-10-17T19:00:11.742Z,15.40
2018-10-17T19:02:40.099Z,15.30
2018-10-17T19:05:08.372Z,15.30
2018-10-17T19:07:36.603Z,15.20
2018-10-17T19:10:05.291Z,15.10
2018-10-17T19:12:33.544Z,15.00
2018-10-17T19:15:01.849Z,14.90
2018-10-17T19:17:30.090Z,14.80
2018-10-17T19:19:58.478Z,14.80
2018-10-17T19:22:26.790Z,14.80
2018-10-17T19:24:55.026Z,14.70
2018-10-17T19:27:23.362Z,14.70
2018-10-17T19:29:51.624Z,14.70
2018-10-17T19:32:19.887Z,14.70
2018-10-17T19:34:48.144Z,14.60
2018-10-17T19:37:16.407Z,14.50
2018-10-17T19:39:44.799Z,14.30
2018-10-17T19:42:13.136Z,14.30
2018-10-17T19:44:42.213Z,14.30
2018-10-17T19:47:10.535Z,14.30
2018-10-17T19:49:38.836Z,14.30
2018-10-17T19:52:07.153Z,14.20
2018-10-17T19:54:35.364Z,14.20
2018-10-17T19:57:03.638Z,14.10
2018-10-17T19:59:31.890Z,14.10
2018-10-17T20:04:41.810Z,13.80
2018-10-17T20:07:10.103Z,13.70
2018-10-17T20:09:38.355Z,13.60
2018-10-17T20:12:06.636Z,13.50
2018-10-17T20:14:34.915Z,13.40
2018-10-17T20:17:03.215Z,13.40
2018-10-17T20:19:31.547Z,13.30
2018-10-17T20:21:59.879Z,13.30
2018-10-17T20:24:28.122Z,13.20
2018-10-17T20:26:56.475Z,13.10
2018-10-17T20:29:24.724Z,13.10
2018-10-17T20:31:52.976Z,13.10
2018-10-17T20:34:21.195Z,13.10
2018-10-17T20:36:49.474Z,13.10
2018-10-17T20:39:17.787Z,13.10
2018-10-17T20:41:46.031Z,13.10
2018-10-17T20:44:14.356Z,13.20
2018-10-17T20:46:42.675Z,13.20
2018-10-17T20:49:11.025Z,13.10
2018-10-17T20:51:39.279Z,13.00
2018-10-17T20:54:07.800Z,13.00
2018-10-17T20:56:36.038Z,13.00
2018-10-17T20:59:04.677Z,13.00
2018-10-17T21:01:32.931Z,13.10
2018-10-17T21:04:01.185Z,13.20
2018-10-17T21:06:29.398Z,13.30
2018-10-17T21:08:57.651Z,13.20
2018-10-17T21:11:25.992Z,13.20
2018-10-17T21:13:54.183Z,13.00
2018-10-17T21:16:22.479Z,12.80
2018-10-17T21:18:50.821Z,12.70
2018-10-17T21:21:19.029Z,12.60
2018-10-17T21:23:47.259Z,12.60
2018-10-17T21:26:15.686Z,12.60
2018-10-17T21:28:43.876Z,12.50
2018-10-17T21:31:12.131Z,12.60
2018-10-17T21:33:40.404Z,12.70
2018-10-17T21:36:08.669Z,12.70
2018-10-17T21:38:37.025Z,12.70
2018-10-17T21:41:05.279Z,12.60
2018-10-17T21:43:33.543Z,12.60
2018-10-17T21:46:01.791Z,12.50
2018-10-17T21:48:30.091Z,12.30
2018-10-17T21:50:58.315Z,12.20
2018-10-17T21:53:26.536Z,12.20
2018-10-17T21:55:54.862Z,12.10
2018-10-17T21:58:23.068Z,12.10
2018-10-17T22:00:51.341Z,12.10
2018-10-17T22:03:19.639Z,12.00
2018-10-17T22:05:47.899Z,12.00
2018-10-17T22:08:16.292Z,12.00
2018-10-17T22:10:44.458Z,12.00
2018-10-17T22:13:12.695Z,12.00
2018-10-17T22:15:40.954Z,12.10
2018-10-17T22:18:09.285Z,11.90
2018-10-17T22:20:37.599Z,11.90
2018-10-17T22:23:05.848Z,12.00
2018-10-17T22:25:34.130Z,12.10
2018-10-17T22:28:02.427Z,12.20
2018-10-17T22:30:30.686Z,12.20
2018-10-17T22:32:58.935Z,12.30
2018-10-17T22:35:27.234Z,12.20
2018-10-17T22:37:55.609Z,12.10
2018-10-17T22:40:23.890Z,11.90
2018-10-17T22:42:52.152Z,11.80
2018-10-17T22:45:20.429Z,11.70
2018-10-17T22:47:48.704Z,11.70
2018-10-17T22:50:17.115Z,11.70
2018-10-17T22:52:45.261Z,11.60
2018-10-17T22:55:13.552Z,11.70
2018-10-17T22:57:41.771Z,11.50
2018-10-17T23:00:10.456Z,11.50
2018-10-17T23:02:44.762Z,11.50
2018-10-17T23:05:12.956Z,11.50
2018-10-17T23:07:41.215Z,11.40
2018-10-17T23:10:09.454Z,11.30
2018-10-17T23:12:37.671Z,11.40
2018-10-17T23:15:10.191Z,11.40
2018-10-17T23:17:38.399Z,11.30
2018-10-17T23:20:06.843Z,11.30
2018-10-17T23:22:35.431Z,11.30
2018-10-17T23:25:03.758Z,11.30
2018-10-17T23:27:31.994Z,11.20
2018-10-17T23:30:00.223Z,11.20
2018-10-17T23:32:28.506Z,11.20
2018-10-17T23:34:57.515Z,11.20
2018-10-17T23:37:25.746Z,11.10
2018-10-17T23:39:53.980Z,11.10
2018-10-17T23:42:22.217Z,11.10
2018-10-17T23:44:50.452Z,11.10
2018-10-17T23:47:18.727Z,11.10
2018-10-17T23:49:46.985Z,11.00
2018-10-17T23:52:15.289Z,11.00
2018-10-17T23:54:43.724Z,11.00
2018-10-17T23:57:11.963Z,11.00
2018-10-17T23:59:40.227Z,10.90
